Havana, Ohio
Current Conditions -  °F | °C
As of 9:52 AM on Friday 24 Oct 2014 (Local Time) from KMFD Reporting Station
Clear Clear  
Wind Chill: 45°   Ceiling: Unl
Heat Index: 47°   Visibility: 8mi
Dew Point: 43°   Wind: 5mph
Humidity: 86%   Direction: 210°SSW
Pressure: 30.11"   Gusts: NA
Location:  41.0768°N, 82.7214°W
Report Text: KMFD 241352Z 21004KT 8SM CLR 08/06 A3011 RMK AO2 SLP201 T00830061
Loading
Personal Weather Stations






























Interactive Weather Map
Tropical Storm Tracking
New forecast layout! Learn more

10-Day Weather Forecast

Advertisements
Track Severe Weather on mobile